sensor_id;sensor_type;location;lat;lon;timestamp;pressure;altitude;pressure_sealevel;temperature;humidity
28927;BME280;16038;47.692;9.400;2022-08-03T00:02:22;96703.16;;;18.54;100.00
28927;BME280;16038;47.692;9.400;2022-08-03T00:04:48;96698.47;;;18.51;100.00
28927;BME280;16038;47.692;9.400;2022-08-03T00:07:13;96702.50;;;18.47;100.00
28927;BME280;16038;47.692;9.400;2022-08-03T00:09:39;96698.38;;;18.31;100.00
28927;BME280;16038;47.692;9.400;2022-08-03T00:12:05;96699.25;;;18.25;100.00
28927;BME280;16038;47.692;9.400;2022-08-03T00:14:30;96696.84;;;18.27;100.00
28927;BME280;16038;47.692;9.400;2022-08-03T00:16:56;96697.63;;;18.27;100.00
28927;BME280;16038;47.692;9.400;2022-08-03T00:19:22;96698.53;;;18.21;100.00
28927;BME280;16038;47.692;9.400;2022-08-03T00:21:47;96696.44;;;18.28;100.00
28927;BME280;16038;47.692;9.400;2022-08-03T00:24:13;96700.22;;;18.38;100.00
28927;BME280;16038;47.692;9.400;2022-08-03T00:26:38;96691.91;;;18.11;100.00
28927;BME280;16038;47.692;9.400;2022-08-03T00:29:04;96693.03;;;17.86;100.00
28927;BME280;16038;47.692;9.400;2022-08-03T00:31:29;96695.56;;;17.70;100.00
28927;BME280;16038;47.692;9.400;2022-08-03T00:33:54;96691.50;;;17.78;100.00
28927;BME280;16038;47.692;9.400;2022-08-03T00:36:20;96692.59;;;17.88;100.00
28927;BME280;16038;47.692;9.400;2022-08-03T00:38:45;96690.13;;;17.97;100.00
28927;BME280;16038;47.692;9.400;2022-08-03T00:41:10;96691.22;;;18.03;100.00
28927;BME280;16038;47.692;9.400;2022-08-03T00:43:36;96692.66;;;18.15;100.00
28927;BME280;16038;47.692;9.400;2022-08-03T00:46:01;96688.06;;;18.32;100.00
28927;BME280;16038;47.692;9.400;2022-08-03T00:48:27;96684.16;;;18.29;100.00
28927;BME280;16038;47.692;9.400;2022-08-03T00:50:52;96686.78;;;18.09;100.00
28927;BME280;16038;47.692;9.400;2022-08-03T00:53:18;96678.38;;;18.17;100.00
28927;BME280;16038;47.692;9.400;2022-08-03T00:55:44;96681.09;;;18.20;100.00
28927;BME280;16038;47.692;9.400;2022-08-03T00:58:09;96683.38;;;18.25;100.00
28927;BME280;16038;47.692;9.400;2022-08-03T01:00:37;96684.63;;;18.24;100.00
28927;BME280;16038;47.692;9.400;2022-08-03T01:03:05;96687.78;;;18.23;100.00
28927;BME280;16038;47.692;9.400;2022-08-03T01:05:54;96685.38;;;18.25;100.00
28927;BME280;16038;47.692;9.400;2022-08-03T01:08:30;96685.94;;;18.12;100.00
28927;BME280;16038;47.692;9.400;2022-08-03T01:11:09;96681.19;;;18.13;100.00
28927;BME280;16038;47.692;9.400;2022-08-03T01:14:02;96685.94;;;18.12;100.00
28927;BME280;16038;47.692;9.400;2022-08-03T01:16:35;96681.28;;;18.06;100.00
28927;BME280;16038;47.692;9.400;2022-08-03T01:24:54;96673.78;;;18.06;100.00
28927;BME280;16038;47.692;9.400;2022-08-03T01:27:25;96682.13;;;18.03;100.00
28927;BME280;16038;47.692;9.400;2022-08-03T01:32:54;96670.97;;;17.75;100.00
28927;BME280;16038;47.692;9.400;2022-08-03T01:35:26;96678.28;;;17.58;100.00
28927;BME280;16038;47.692;9.400;2022-08-03T01:37:56;96669.47;;;17.33;100.00
28927;BME280;16038;47.692;9.400;2022-08-03T01:40:24;96673.06;;;17.30;100.00
28927;BME280;16038;47.692;9.400;2022-08-03T01:42:53;96674.59;;;17.34;100.00
28927;BME280;16038;47.692;9.400;2022-08-03T01:45:21;96674.59;;;17.34;100.00
28927;BME280;16038;47.692;9.400;2022-08-03T01:47:48;96677.03;;;17.29;100.00
28927;BME280;16038;47.692;9.400;2022-08-03T01:50:14;96671.16;;;17.23;100.00
28927;BME280;16038;47.692;9.400;2022-08-03T01:52:43;96669.22;;;17.20;100.00
28927;BME280;16038;47.692;9.400;2022-08-03T01:55:11;96675.75;;;17.37;100.00
28927;BME280;16038;47.692;9.400;2022-08-03T01:57:38;96678.44;;;17.44;100.00
28927;BME280;16038;47.692;9.400;2022-08-03T02:00:05;96672.53;;;17.42;100.00
28927;BME280;16038;47.692;9.400;2022-08-03T02:02:35;96674.91;;;17.44;100.00
28927;BME280;16038;47.692;9.400;2022-08-03T02:05:04;96674.53;;;17.42;100.00
28927;BME280;16038;47.692;9.400;2022-08-03T02:07:31;96670.19;;;17.41;100.00
28927;BME280;16038;47.692;9.400;2022-08-03T02:10:00;96668.59;;;17.43;100.00
28927;BME280;16038;47.692;9.400;2022-08-03T02:12:28;96672.13;;;17.44;100.00
28927;BME280;16038;47.692;9.400;2022-08-03T02:14:55;96672.00;;;17.54;100.00
28927;BME280;16038;47.692;9.400;2022-08-03T02:17:22;96666.44;;;17.58;100.00
28927;BME280;16038;47.692;9.400;2022-08-03T02:19:50;96671.22;;;17.54;100.00
28927;BME280;16038;47.692;9.400;2022-08-03T02:22:16;96674.81;;;17.51;100.00
28927;BME280;16038;47.692;9.400;2022-08-03T02:24:42;96666.44;;;17.58;100.00
28927;BME280;16038;47.692;9.400;2022-08-03T02:27:19;96670.38;;;17.57;100.00
28927;BME280;16038;47.692;9.400;2022-08-03T02:29:48;96664.06;;;17.56;100.00
28927;BME280;16038;47.692;9.400;2022-08-03T02:32:16;96664.06;;;17.56;100.00
28927;BME280;16038;47.692;9.400;2022-08-03T02:34:46;96661.34;;;17.53;100.00
28927;BME280;16038;47.692;9.400;2022-08-03T02:37:12;96662.16;;;17.50;100.00
28927;BME280;16038;47.692;9.400;2022-08-03T02:39:40;96666.19;;;17.45;100.00
28927;BME280;16038;47.692;9.400;2022-08-03T02:42:08;96665.00;;;17.43;100.00
28927;BME280;16038;47.692;9.400;2022-08-03T02:44:35;96654.34;;;17.41;100.00
28927;BME280;16038;47.692;9.400;2022-08-03T02:47:07;96655.53;;;17.44;100.00
28927;BME280;16038;47.692;9.400;2022-08-03T02:49:34;96659.56;;;17.35;100.00
28927;BME280;16038;47.692;9.400;2022-08-03T02:52:01;96652.50;;;17.31;100.00
28927;BME280;16038;47.692;9.400;2022-08-03T02:54:29;96650.50;;;17.31;100.00
28927;BME280;16038;47.692;9.400;2022-08-03T02:56:56;96648.88;;;17.34;100.00
28927;BME280;16038;47.692;9.400;2022-08-03T02:59:23;96645.63;;;17.43;100.00
28927;BME280;16038;47.692;9.400;2022-08-03T03:01:50;96648.81;;;17.41;100.00
28927;BME280;16038;47.692;9.400;2022-08-03T03:04:16;96652.38;;;17.42;100.00
28927;BME280;16038;47.692;9.400;2022-08-03T03:06:42;96654.38;;;17.37;100.00
28927;BME280;16038;47.692;9.400;2022-08-03T03:09:08;96654.38;;;17.37;100.00
28927;BME280;16038;47.692;9.400;2022-08-03T03:11:37;96652.50;;;17.31;100.00
28927;BME280;16038;47.692;9.400;2022-08-03T03:14:02;96649.72;;;17.31;100.00
28927;BME280;16038;47.692;9.400;2022-08-03T03:16:28;96645.69;;;17.01;100.00
28927;BME280;16038;47.692;9.400;2022-08-03T03:18:56;96648.03;;;17.03;100.00
28927;BME280;16038;47.692;9.400;2022-08-03T03:21:22;96646.50;;;17.02;100.00
28927;BME280;16038;47.692;9.400;2022-08-03T03:23:48;96651.19;;;17.05;100.00
28927;BME280;16038;47.692;9.400;2022-08-03T03:26:15;96651.16;;;17.08;100.00
28927;BME280;16038;47.692;9.400;2022-08-03T03:28:41;96649.66;;;17.00;100.00
28927;BME280;16038;47.692;9.400;2022-08-03T03:31:07;96648.41;;;17.05;100.00
28927;BME280;16038;47.692;9.400;2022-08-03T03:33:34;96650.03;;;17.02;100.00
28927;BME280;16038;47.692;9.400;2022-08-03T03:36:00;96654.84;;;16.94;100.00
28927;BME280;16038;47.692;9.400;2022-08-03T03:38:25;96656.38;;;16.99;100.00
28927;BME280;16038;47.692;9.400;2022-08-03T03:40:51;96653.69;;;16.92;100.00
28927;BME280;16038;47.692;9.400;2022-08-03T03:43:17;96672.75;;;16.75;100.00
28927;BME280;16038;47.692;9.400;2022-08-03T03:45:44;96670.53;;;16.56;100.00
28927;BME280;16038;47.692;9.400;2022-08-03T03:48:10;96679.69;;;16.46;100.00
28927;BME280;16038;47.692;9.400;2022-08-03T03:50:36;96666.38;;;16.33;100.00
28927;BME280;16038;47.692;9.400;2022-08-03T03:53:03;96673.13;;;16.25;100.00
28927;BME280;16038;47.692;9.400;2022-08-03T03:55:28;96673.50;;;16.31;100.00
28927;BME280;16038;47.692;9.400;2022-08-03T03:57:54;96676.97;;;16.38;100.00
28927;BME280;16038;47.692;9.400;2022-08-03T04:00:20;96676.63;;;16.33;100.00
28927;BME280;16038;47.692;9.400;2022-08-03T04:02:46;96678.50;;;16.47;100.00
28927;BME280;16038;47.692;9.400;2022-08-03T04:05:13;96684.66;;;16.09;100.00
28927;BME280;16038;47.692;9.400;2022-08-03T04:08:08;96683.25;;;15.83;100.00
28927;BME280;16038;47.692;9.400;2022-08-03T04:11:15;96684.59;;;15.24;100.00
28927;BME280;16038;47.692;9.400;2022-08-03T04:13:50;96673.81;;;15.66;100.00
28927;BME280;16038;47.692;9.400;2022-08-03T04:16:21;96678.41;;;16.01;100.00
28927;BME280;16038;47.692;9.400;2022-08-03T04:18:58;96673.09;;;16.32;100.00
28927;BME280;16038;47.692;9.400;2022-08-03T04:21:26;96673.78;;;16.43;100.00
28927;BME280;16038;47.692;9.400;2022-08-03T04:23:55;96677.66;;;16.57;100.00
28927;BME280;16038;47.692;9.400;2022-08-03T04:26:23;96674.03;;;16.63;100.00
28927;BME280;16038;47.692;9.400;2022-08-03T04:28:52;96675.97;;;16.70;100.00
28927;BME280;16038;47.692;9.400;2022-08-03T04:31:22;96681.75;;;16.90;100.00
28927;BME280;16038;47.692;9.400;2022-08-03T04:33:50;96677.28;;;17.04;100.00
28927;BME280;16038;47.692;9.400;2022-08-03T04:36:20;96684.81;;;16.99;100.00
28927;BME280;16038;47.692;9.400;2022-08-03T04:39:05;96689.81;;;16.67;100.00
28927;BME280;16038;47.692;9.400;2022-08-03T04:41:33;96693.94;;;16.44;100.00
28927;BME280;16038;47.692;9.400;2022-08-03T04:44:01;96685.84;;;16.15;100.00
28927;BME280;16038;47.692;9.400;2022-08-03T04:46:34;96695.31;;;16.11;100.00
28927;BME280;16038;47.692;9.400;2022-08-03T04:49:01;96696.16;;;16.00;100.00
28927;BME280;16038;47.692;9.400;2022-08-03T04:51:28;96695.75;;;16.02;100.00
28927;BME280;16038;47.692;9.400;2022-08-03T04:53:53;96700.22;;;15.78;100.00
28927;BME280;16038;47.692;9.400;2022-08-03T04:56:19;96702.59;;;15.76;100.00
28927;BME280;16038;47.692;9.400;2022-08-03T04:58:44;96698.25;;;15.78;100.00
28927;BME280;16038;47.692;9.400;2022-08-03T05:01:09;96698.56;;;15.95;100.00
28927;BME280;16038;47.692;9.400;2022-08-03T05:03:35;96700.44;;;16.16;100.00
28927;BME280;16038;47.692;9.400;2022-08-03T05:06:00;96705.44;;;16.39;100.00
28927;BME280;16038;47.692;9.400;2022-08-03T05:08:26;96699.69;;;16.68;100.00
28927;BME280;16038;47.692;9.400;2022-08-03T05:10:52;96700.53;;;17.86;100.00
28927;BME280;16038;47.692;9.400;2022-08-03T05:13:17;96700.22;;;19.60;100.00
28927;BME280;16038;47.692;9.400;2022-08-03T05:15:42;96701.75;;;21.39;100.00
28927;BME280;16038;47.692;9.400;2022-08-03T05:18:08;96710.84;;;23.31;92.70
28927;BME280;16038;47.692;9.400;2022-08-03T05:20:34;96713.81;;;25.18;78.78
28927;BME280;16038;47.692;9.400;2022-08-03T05:22:59;96715.59;;;26.69;71.02
28927;BME280;16038;47.692;9.400;2022-08-03T05:25:26;96723.75;;;28.12;63.60
28927;BME280;16038;47.692;9.400;2022-08-03T05:27:52;96726.84;;;29.24;56.35
28927;BME280;16038;47.692;9.400;2022-08-03T05:30:17;96723.75;;;29.22;53.19
28927;BME280;16038;47.692;9.400;2022-08-03T05:32:43;96718.59;;;29.77;52.42
28927;BME280;16038;47.692;9.400;2022-08-03T05:35:09;96719.47;;;30.67;49.23
28927;BME280;16038;47.692;9.400;2022-08-03T05:37:34;96729.31;;;31.52;46.26
28927;BME280;16038;47.692;9.400;2022-08-03T05:40:00;96732.31;;;32.03;43.84
28927;BME280;16038;47.692;9.400;2022-08-03T05:42:26;96733.66;;;32.08;43.11
28927;BME280;16038;47.692;9.400;2022-08-03T05:44:51;96724.94;;;32.45;42.90
28927;BME280;16038;47.692;9.400;2022-08-03T05:47:16;96723.59;;;30.72;47.44
28927;BME280;16038;47.692;9.400;2022-08-03T05:49:42;96728.75;;;32.14;43.51
28927;BME280;16038;47.692;9.400;2022-08-03T05:52:07;96732.47;;;31.71;45.01
28927;BME280;16038;47.692;9.400;2022-08-03T05:54:32;96730.91;;;32.81;43.31
28927;BME280;16038;47.692;9.400;2022-08-03T05:56:58;96727.00;;;33.07;42.12
28927;BME280;16038;47.692;9.400;2022-08-03T05:59:23;96734.75;;;33.18;41.84
28927;BME280;16038;47.692;9.400;2022-08-03T06:01:51;96729.34;;;32.91;40.08
28927;BME280;16038;47.692;9.400;2022-08-03T06:04:16;96724.91;;;33.36;40.90
28927;BME280;16038;47.692;9.400;2022-08-03T06:06:41;96730.66;;;31.68;42.30
28927;BME280;16038;47.692;9.400;2022-08-03T06:09:08;96729.41;;;31.75;44.23
28927;BME280;16038;47.692;9.400;2022-08-03T06:11:35;96728.09;;;31.76;44.85
28927;BME280;16038;47.692;9.400;2022-08-03T06:14:00;96734.94;;;33.48;39.64
28927;BME280;16038;47.692;9.400;2022-08-03T06:16:26;96737.03;;;34.06;38.35
28927;BME280;16038;47.692;9.400;2022-08-03T06:18:51;96739.81;;;33.47;40.25
28927;BME280;16038;47.692;9.400;2022-08-03T06:21:16;96731.47;;;28.56;51.08
28927;BME280;16038;47.692;9.400;2022-08-03T06:23:43;96728.81;;;27.12;59.06
28927;BME280;16038;47.692;9.400;2022-08-03T06:26:08;96728.22;;;25.94;62.89
28927;BME280;16038;47.692;9.400;2022-08-03T06:28:34;96727.59;;;26.27;61.84
28927;BME280;16038;47.692;9.400;2022-08-03T06:31:00;96726.19;;;25.30;67.23
28927;BME280;16038;47.692;9.400;2022-08-03T06:33:25;96729.47;;;25.75;63.10
28927;BME280;16038;47.692;9.400;2022-08-03T06:35:51;96725.00;;;25.09;65.95
28927;BME280;16038;47.692;9.400;2022-08-03T06:38:16;96734.53;;;24.18;68.41
28927;BME280;16038;47.692;9.400;2022-08-03T06:40:42;96725.09;;;25.92;62.88
28927;BME280;16038;47.692;9.400;2022-08-03T06:43:07;96725.75;;;25.97;61.66
28927;BME280;16038;47.692;9.400;2022-08-03T06:45:33;96725.38;;;26.31;58.91
28927;BME280;16038;47.692;9.400;2022-08-03T06:48:04;96724.75;;;29.40;50.11
28927;BME280;16038;47.692;9.400;2022-08-03T06:50:30;96733.31;;;27.91;53.70
28927;BME280;16038;47.692;9.400;2022-08-03T06:52:56;96728.59;;;26.67;57.05
28927;BME280;16038;47.692;9.400;2022-08-03T06:55:21;96732.97;;;27.01;55.93
28927;BME280;16038;47.692;9.400;2022-08-03T06:57:47;96729.19;;;26.71;56.71
28927;BME280;16038;47.692;9.400;2022-08-03T07:00:13;96742.13;;;26.59;56.57
28927;BME280;16038;47.692;9.400;2022-08-03T07:02:39;96737.75;;;27.10;56.41
28927;BME280;16038;47.692;9.400;2022-08-03T07:05:06;96748.78;;;29.91;46.53
28927;BME280;16038;47.692;9.400;2022-08-03T07:07:32;96743.13;;;27.32;53.03
28927;BME280;16038;47.692;9.400;2022-08-03T07:09:57;96751.66;;;28.55;51.67
28927;BME280;16038;47.692;9.400;2022-08-03T07:12:23;96741.69;;;29.60;46.98
28927;BME280;16038;47.692;9.400;2022-08-03T07:14:49;96750.66;;;27.50;51.45
28927;BME280;16038;47.692;9.400;2022-08-03T07:17:15;96749.00;;;28.96;49.68
28927;BME280;16038;47.692;9.400;2022-08-03T07:19:40;96741.75;;;31.29;42.49
28927;BME280;16038;47.692;9.400;2022-08-03T07:22:05;96745.78;;;30.26;43.61
28927;BME280;16038;47.692;9.400;2022-08-03T07:24:33;96745.22;;;28.84;47.66
28927;BME280;16038;47.692;9.400;2022-08-03T07:26:58;96742.91;;;28.68;49.85
28927;BME280;16038;47.692;9.400;2022-08-03T07:29:23;96751.69;;;30.81;44.48
28927;BME280;16038;47.692;9.400;2022-08-03T07:31:49;96746.94;;;29.88;45.00
28927;BME280;16038;47.692;9.400;2022-08-03T07:34:14;96751.53;;;26.99;53.78
28927;BME280;16038;47.692;9.400;2022-08-03T07:36:39;96743.72;;;29.60;48.57
28927;BME280;16038;47.692;9.400;2022-08-03T07:39:05;96747.47;;;28.65;49.64
28927;BME280;16038;47.692;9.400;2022-08-03T07:41:31;96745.41;;;27.43;53.12
28927;BME280;16038;47.692;9.400;2022-08-03T07:43:56;96747.25;;;30.16;46.02
28927;BME280;16038;47.692;9.400;2022-08-03T07:46:22;96743.31;;;29.46;47.56
28927;BME280;16038;47.692;9.400;2022-08-03T07:48:47;96742.03;;;28.62;50.79
28927;BME280;16038;47.692;9.400;2022-08-03T07:51:13;96741.25;;;28.61;50.55
28927;BME280;16038;47.692;9.400;2022-08-03T07:53:38;96733.25;;;28.45;52.12
28927;BME280;16038;47.692;9.400;2022-08-03T07:56:04;96736.88;;;29.46;49.33
28927;BME280;16038;47.692;9.400;2022-08-03T07:58:29;96737.16;;;28.32;51.92
28927;BME280;16038;47.692;9.400;2022-08-03T08:00:54;96738.53;;;29.17;50.61
28927;BME280;16038;47.692;9.400;2022-08-03T08:03:20;96738.19;;;27.66;54.35
28927;BME280;16038;47.692;9.400;2022-08-03T08:05:48;96723.31;;;27.26;54.66
28927;BME280;16038;47.692;9.400;2022-08-03T08:08:14;96732.66;;;26.99;56.10
28927;BME280;16038;47.692;9.400;2022-08-03T08:10:39;96734.44;;;28.68;52.44
28927;BME280;16038;47.692;9.400;2022-08-03T08:13:05;96730.09;;;30.78;46.36
28927;BME280;16038;47.692;9.400;2022-08-03T08:15:30;96738.00;;;28.98;50.04
28927;BME280;16038;47.692;9.400;2022-08-03T08:17:58;96735.25;;;29.04;51.03
28927;BME280;16038;47.692;9.400;2022-08-03T08:20:30;96728.56;;;31.63;44.40
28927;BME280;16038;47.692;9.400;2022-08-03T08:23:03;96723.47;;;30.55;45.89
28927;BME280;16038;47.692;9.400;2022-08-03T08:25:30;96729.34;;;29.02;50.33
28927;BME280;16038;47.692;9.400;2022-08-03T08:27:56;96719.47;;;28.02;51.16
28927;BME280;16038;47.692;9.400;2022-08-03T08:30:22;96733.50;;;29.06;49.29
28927;BME280;16038;47.692;9.400;2022-08-03T08:32:49;96729.50;;;27.55;53.82
28927;BME280;16038;47.692;9.400;2022-08-03T08:35:15;96723.97;;;27.84;54.43
28927;BME280;16038;47.692;9.400;2022-08-03T08:37:41;96725.88;;;28.92;50.31
28927;BME280;16038;47.692;9.400;2022-08-03T08:40:08;96728.72;;;28.47;52.34
28927;BME280;16038;47.692;9.400;2022-08-03T08:42:36;96721.44;;;27.72;53.35
28927;BME280;16038;47.692;9.400;2022-08-03T08:45:03;96723.06;;;29.89;47.15
28927;BME280;16038;47.692;9.400;2022-08-03T08:47:33;96720.63;;;28.85;50.72
28927;BME280;16038;47.692;9.400;2022-08-03T08:50:01;96722.78;;;29.66;48.32
28927;BME280;16038;47.692;9.400;2022-08-03T08:52:27;96721.81;;;31.49;43.80
28927;BME280;16038;47.692;9.400;2022-08-03T08:54:58;96721.88;;;32.60;43.54
28927;BME280;16038;47.692;9.400;2022-08-03T08:57:33;96732.31;;;33.67;41.70
28927;BME280;16038;47.692;9.400;2022-08-03T09:00:00;96728.66;;;33.72;42.63
28927;BME280;16038;47.692;9.400;2022-08-03T09:02:29;96725.09;;;34.13;41.18
28927;BME280;16038;47.692;9.400;2022-08-03T09:04:55;96732.81;;;33.71;42.25
28927;BME280;16038;47.692;9.400;2022-08-03T09:07:22;96728.19;;;33.57;41.32
28927;BME280;16038;47.692;9.400;2022-08-03T09:09:47;96731.06;;;33.45;42.31
28927;BME280;16038;47.692;9.400;2022-08-03T09:12:13;96732.38;;;33.39;41.98
28927;BME280;16038;47.692;9.400;2022-08-03T09:14:38;96730.28;;;33.50;42.36
28927;BME280;16038;47.692;9.400;2022-08-03T09:17:04;96726.47;;;33.25;42.74
28927;BME280;16038;47.692;9.400;2022-08-03T09:19:32;96726.41;;;33.53;42.64
28927;BME280;16038;47.692;9.400;2022-08-03T09:22:15;96733.09;;;34.15;40.64
28927;BME280;16038;47.692;9.400;2022-08-03T09:25:03;96729.41;;;34.31;41.50
28927;BME280;16038;47.692;9.400;2022-08-03T09:27:50;96734.44;;;34.08;41.86
28927;BME280;16038;47.692;9.400;2022-08-03T09:30:17;96728.44;;;33.59;43.01
28927;BME280;16038;47.692;9.400;2022-08-03T09:32:43;96725.94;;;32.19;44.64
28927;BME280;16038;47.692;9.400;2022-08-03T09:35:12;96731.16;;;32.94;44.24
28927;BME280;16038;47.692;9.400;2022-08-03T09:37:38;96725.22;;;32.98;43.52
28927;BME280;16038;47.692;9.400;2022-08-03T09:40:04;96718.25;;;32.99;43.92
28927;BME280;16038;47.692;9.400;2022-08-03T09:42:30;96722.63;;;33.06;43.18
28927;BME280;16038;47.692;9.400;2022-08-03T09:44:55;96723.69;;;32.63;44.01
28927;BME280;16038;47.692;9.400;2022-08-03T09:47:33;96725.72;;;33.19;43.98
28927;BME280;16038;47.692;9.400;2022-08-03T09:50:04;96727.22;;;32.07;46.83
28927;BME280;16038;47.692;9.400;2022-08-03T09:52:32;96724.22;;;32.62;44.83
28927;BME280;16038;47.692;9.400;2022-08-03T09:54:58;96725.19;;;33.04;44.10
28927;BME280;16038;47.692;9.400;2022-08-03T09:57:26;96727.34;;;33.79;41.98
28927;BME280;16038;47.692;9.400;2022-08-03T09:59:53;96723.25;;;33.63;41.85
28927;BME280;16038;47.692;9.400;2022-08-03T10:02:25;96732.28;;;33.78;41.50
28927;BME280;16038;47.692;9.400;2022-08-03T10:04:52;96721.97;;;33.58;42.07
28927;BME280;16038;47.692;9.400;2022-08-03T10:07:20;96721.84;;;33.17;43.17
28927;BME280;16038;47.692;9.400;2022-08-03T10:09:57;96714.38;;;33.02;43.52
28927;BME280;16038;47.692;9.400;2022-08-03T10:12:23;96723.16;;;33.10;44.06
28927;BME280;16038;47.692;9.400;2022-08-03T10:14:49;96703.84;;;32.80;45.05
28927;BME280;16038;47.692;9.400;2022-08-03T10:17:16;96715.41;;;32.26;45.52
28927;BME280;16038;47.692;9.400;2022-08-03T10:19:42;96707.66;;;32.32;45.77
28927;BME280;16038;47.692;9.400;2022-08-03T10:22:28;96699.16;;;32.20;45.19
28927;BME280;16038;47.692;9.400;2022-08-03T10:25:06;96704.81;;;32.09;46.51
28927;BME280;16038;47.692;9.400;2022-08-03T10:27:38;96703.84;;;32.69;44.06
28927;BME280;16038;47.692;9.400;2022-08-03T10:30:09;96702.78;;;32.44;44.42
28927;BME280;16038;47.692;9.400;2022-08-03T10:32:51;96703.94;;;31.80;46.21
28927;BME280;16038;47.692;9.400;2022-08-03T10:35:21;96699.91;;;32.15;45.55
28927;BME280;16038;47.692;9.400;2022-08-03T10:37:57;96706.34;;;32.16;45.94
28927;BME280;16038;47.692;9.400;2022-08-03T10:40:26;96692.19;;;32.10;45.95
28927;BME280;16038;47.692;9.400;2022-08-03T10:42:55;96692.63;;;31.80;45.80
28927;BME280;16038;47.692;9.400;2022-08-03T10:45:26;96693.94;;;31.96;46.17
28927;BME280;16038;47.692;9.400;2022-08-03T10:47:54;96694.19;;;31.98;45.79
28927;BME280;16038;47.692;9.400;2022-08-03T10:50:23;96684.88;;;31.75;45.90
28927;BME280;16038;47.692;9.400;2022-08-03T10:53:02;96685.44;;;31.96;46.42
28927;BME280;16038;47.692;9.400;2022-08-03T10:55:36;96678.72;;;31.94;46.80
28927;BME280;16038;47.692;9.400;2022-08-03T10:58:47;96686.44;;;31.82;46.93
28927;BME280;16038;47.692;9.400;2022-08-03T11:01:14;96675.91;;;31.88;46.39
28927;BME280;16038;47.692;9.400;2022-08-03T11:06:22;96669.94;;;31.15;46.77
28927;BME280;16038;47.692;9.400;2022-08-03T11:09:12;96676.59;;;30.74;47.63
28927;BME280;16038;47.692;9.400;2022-08-03T11:11:37;96673.31;;;30.44;49.89
28927;BME280;16038;47.692;9.400;2022-08-03T11:16:47;96671.75;;;30.80;47.74
28927;BME280;16038;47.692;9.400;2022-08-03T11:19:18;96666.19;;;30.54;49.25
28927;BME280;16038;47.692;9.400;2022-08-03T11:30:07;96663.78;;;30.79;48.90
28927;BME280;16038;47.692;9.400;2022-08-03T11:40:43;96660.31;;;30.58;49.88
28927;BME280;16038;47.692;9.400;2022-08-03T11:46:03;96654.22;;;30.71;50.12
28927;BME280;16038;47.692;9.400;2022-08-03T11:48:38;96651.72;;;30.84;48.97
28927;BME280;16038;47.692;9.400;2022-08-03T11:51:06;96652.22;;;30.82;46.82
28927;BME280;16038;47.692;9.400;2022-08-03T11:53:33;96648.06;;;30.72;48.19
28927;BME280;16038;47.692;9.400;2022-08-03T11:56:00;96645.72;;;30.65;48.95
28927;BME280;16038;47.692;9.400;2022-08-03T11:58:26;96644.72;;;30.36;48.99
28927;BME280;16038;47.692;9.400;2022-08-03T12:00:55;96637.41;;;30.24;49.90
28927;BME280;16038;47.692;9.400;2022-08-03T12:03:32;96635.22;;;30.71;49.64
28927;BME280;16038;47.692;9.400;2022-08-03T12:05:58;96633.91;;;31.10;48.13
28927;BME280;16038;47.692;9.400;2022-08-03T12:10:52;96626.53;;;30.80;48.91
28927;BME280;16038;47.692;9.400;2022-08-03T12:13:18;96632.44;;;30.45;48.47
28927;BME280;16038;47.692;9.400;2022-08-03T12:15:53;96624.84;;;30.57;48.80
28927;BME280;16038;47.692;9.400;2022-08-03T12:18:19;96627.66;;;30.57;48.00
28927;BME280;16038;47.692;9.400;2022-08-03T12:20:47;96624.25;;;30.15;49.87
28927;BME280;16038;47.692;9.400;2022-08-03T12:23:13;96628.47;;;30.31;48.74
28927;BME280;16038;47.692;9.400;2022-08-03T12:25:40;96627.41;;;30.28;50.10
28927;BME280;16038;47.692;9.400;2022-08-03T12:28:11;96620.38;;;30.44;50.07
28927;BME280;16038;47.692;9.400;2022-08-03T12:30:39;96622.66;;;30.40;49.70
28927;BME280;16038;47.692;9.400;2022-08-03T12:33:48;96616.34;;;30.57;46.36
28927;BME280;16038;47.692;9.400;2022-08-03T12:36:18;96607.75;;;30.77;48.26
28927;BME280;16038;47.692;9.400;2022-08-03T12:38:56;96614.38;;;31.12;46.99
28927;BME280;16038;47.692;9.400;2022-08-03T12:41:34;96612.28;;;31.01;45.43
28927;BME280;16038;47.692;9.400;2022-08-03T12:44:01;96613.28;;;30.98;43.04
28927;BME280;16038;47.692;9.400;2022-08-03T12:46:33;96617.63;;;30.93;43.84
28927;BME280;16038;47.692;9.400;2022-08-03T12:49:10;96605.69;;;30.78;45.19
28927;BME280;16038;47.692;9.400;2022-08-03T12:54:07;96606.69;;;30.69;42.41
28927;BME280;16038;47.692;9.400;2022-08-03T12:56:33;96607.13;;;30.99;38.99
28927;BME280;16038;47.692;9.400;2022-08-03T12:58:59;96607.91;;;31.00;41.88
28927;BME280;16038;47.692;9.400;2022-08-03T13:01:24;96610.47;;;30.98;40.24
28927;BME280;16038;47.692;9.400;2022-08-03T13:03:52;96607.13;;;30.99;41.39
28927;BME280;16038;47.692;9.400;2022-08-03T13:06:24;96611.63;;;31.29;41.53
28927;BME280;16038;47.692;9.400;2022-08-03T13:09:10;96610.69;;;31.60;37.37
28927;BME280;16038;47.692;9.400;2022-08-03T13:11:35;96604.13;;;31.25;41.25
28927;BME280;16038;47.692;9.400;2022-08-03T13:14:03;96612.59;;;31.20;39.85
28927;BME280;16038;47.692;9.400;2022-08-03T13:16:29;96611.06;;;31.19;38.42
28927;BME280;16038;47.692;9.400;2022-08-03T13:18:54;96608.31;;;31.41;38.93
28927;BME280;16038;47.692;9.400;2022-08-03T13:21:20;96610.69;;;31.54;37.00
28927;BME280;16038;47.692;9.400;2022-08-03T13:23:46;96604.72;;;31.41;36.86
28927;BME280;16038;47.692;9.400;2022-08-03T13:26:12;96609.56;;;31.35;38.70
28927;BME280;16038;47.692;9.400;2022-08-03T13:28:38;96607.72;;;31.20;36.62
28927;BME280;16038;47.692;9.400;2022-08-03T13:31:05;96599.72;;;31.13;38.06
28927;BME280;16038;47.692;9.400;2022-08-03T13:33:31;96596.13;;;31.18;37.75
28927;BME280;16038;47.692;9.400;2022-08-03T13:35:56;96602.84;;;31.15;37.92
28927;BME280;16038;47.692;9.400;2022-08-03T13:38:23;96599.47;;;31.17;38.03
28927;BME280;16038;47.692;9.400;2022-08-03T13:40:50;96599.03;;;31.30;38.42